sensor_id;sensor_type;location;lat;lon;timestamp;P1;durP1;ratioP1;P2;durP2;ratioP2
9248;SDS011;4660;41.768;26.198;2023-12-20T00:00:13;27.13;;;19.10;;
9248;SDS011;4660;41.768;26.198;2023-12-20T00:02:39;22.03;;;15.90;;
9248;SDS011;4660;41.768;26.198;2023-12-20T00:05:04;26.23;;;14.97;;
9248;SDS011;4660;41.768;26.198;2023-12-20T00:07:30;21.03;;;13.70;;
9248;SDS011;4660;41.768;26.198;2023-12-20T00:09:56;21.33;;;13.97;;
9248;SDS011;4660;41.768;26.198;2023-12-20T00:12:21;25.50;;;16.87;;
9248;SDS011;4660;41.768;26.198;2023-12-20T00:14:47;23.30;;;15.13;;
9248;SDS011;4660;41.768;26.198;2023-12-20T00:17:13;19.77;;;14.20;;
9248;SDS011;4660;41.768;26.198;2023-12-20T00:19:38;25.23;;;17.40;;
9248;SDS011;4660;41.768;26.198;2023-12-20T00:22:04;20.30;;;13.57;;
9248;SDS011;4660;41.768;26.198;2023-12-20T00:24:29;19.43;;;14.33;;
9248;SDS011;4660;41.768;26.198;2023-12-20T00:26:55;29.47;;;17.23;;
9248;SDS011;4660;41.768;26.198;2023-12-20T00:29:20;19.40;;;13.27;;
9248;SDS011;4660;41.768;26.198;2023-12-20T00:31:46;20.70;;;12.80;;
9248;SDS011;4660;41.768;26.198;2023-12-20T00:34:11;21.30;;;13.07;;
9248;SDS011;4660;41.768;26.198;2023-12-20T00:36:37;20.40;;;13.73;;
9248;SDS011;4660;41.768;26.198;2023-12-20T00:39:02;18.13;;;12.53;;
9248;SDS011;4660;41.768;26.198;2023-12-20T00:41:28;21.17;;;13.53;;
9248;SDS011;4660;41.768;26.198;2023-12-20T00:43:53;16.80;;;11.60;;
9248;SDS011;4660;41.768;26.198;2023-12-20T00:46:19;18.87;;;11.90;;
9248;SDS011;4660;41.768;26.198;2023-12-20T00:48:44;17.90;;;12.70;;
9248;SDS011;4660;41.768;26.198;2023-12-20T00:51:11;18.80;;;12.70;;
9248;SDS011;4660;41.768;26.198;2023-12-20T00:53:36;21.53;;;13.80;;
9248;SDS011;4660;41.768;26.198;2023-12-20T00:56:02;20.97;;;14.30;;
9248;SDS011;4660;41.768;26.198;2023-12-20T00:58:27;21.43;;;13.37;;
9248;SDS011;4660;41.768;26.198;2023-12-20T01:00:53;18.53;;;12.63;;
9248;SDS011;4660;41.768;26.198;2023-12-20T01:03:18;17.93;;;13.53;;
9248;SDS011;4660;41.768;26.198;2023-12-20T01:05:44;28.17;;;15.57;;
9248;SDS011;4660;41.768;26.198;2023-12-20T01:08:10;22.40;;;14.73;;
9248;SDS011;4660;41.768;26.198;2023-12-20T01:10:35;24.67;;;14.50;;
9248;SDS011;4660;41.768;26.198;2023-12-20T01:13:01;23.50;;;12.77;;
9248;SDS011;4660;41.768;26.198;2023-12-20T01:15:26;19.33;;;11.67;;
9248;SDS011;4660;41.768;26.198;2023-12-20T01:17:52;20.30;;;13.37;;
9248;SDS011;4660;41.768;26.198;2023-12-20T01:20:17;20.67;;;13.97;;
9248;SDS011;4660;41.768;26.198;2023-12-20T01:22:45;18.20;;;13.00;;
9248;SDS011;4660;41.768;26.198;2023-12-20T01:25:11;25.73;;;14.00;;
9248;SDS011;4660;41.768;26.198;2023-12-20T01:27:37;21.97;;;13.47;;
9248;SDS011;4660;41.768;26.198;2023-12-20T01:30:03;22.77;;;13.03;;
9248;SDS011;4660;41.768;26.198;2023-12-20T01:32:29;27.50;;;13.63;;
9248;SDS011;4660;41.768;26.198;2023-12-20T01:34:55;22.03;;;14.27;;
9248;SDS011;4660;41.768;26.198;2023-12-20T01:37:20;23.50;;;13.80;;
9248;SDS011;4660;41.768;26.198;2023-12-20T01:39:46;28.80;;;14.50;;
9248;SDS011;4660;41.768;26.198;2023-12-20T01:42:11;29.53;;;18.83;;
9248;SDS011;4660;41.768;26.198;2023-12-20T01:44:37;24.40;;;15.60;;
9248;SDS011;4660;41.768;26.198;2023-12-20T01:47:02;26.03;;;16.73;;
9248;SDS011;4660;41.768;26.198;2023-12-20T01:49:28;34.03;;;17.23;;
9248;SDS011;4660;41.768;26.198;2023-12-20T01:51:54;27.57;;;15.97;;
9248;SDS011;4660;41.768;26.198;2023-12-20T01:54:20;24.23;;;15.03;;
9248;SDS011;4660;41.768;26.198;2023-12-20T01:56:45;24.97;;;18.00;;
9248;SDS011;4660;41.768;26.198;2023-12-20T01:59:11;28.80;;;19.87;;
9248;SDS011;4660;41.768;26.198;2023-12-20T02:01:37;24.77;;;18.20;;
9248;SDS011;4660;41.768;26.198;2023-12-20T02:04:03;26.63;;;18.07;;
9248;SDS011;4660;41.768;26.198;2023-12-20T02:06:29;34.73;;;20.67;;
9248;SDS011;4660;41.768;26.198;2023-12-20T02:08:58;28.27;;;18.60;;
9248;SDS011;4660;41.768;26.198;2023-12-20T02:11:25;28.97;;;19.80;;
9248;SDS011;4660;41.768;26.198;2023-12-20T02:13:51;34.70;;;19.83;;
9248;SDS011;4660;41.768;26.198;2023-12-20T02:16:17;24.87;;;16.63;;
9248;SDS011;4660;41.768;26.198;2023-12-20T02:18:43;24.27;;;16.07;;
9248;SDS011;4660;41.768;26.198;2023-12-20T02:21:09;23.40;;;15.80;;
9248;SDS011;4660;41.768;26.198;2023-12-20T02:23:36;24.90;;;14.97;;
9248;SDS011;4660;41.768;26.198;2023-12-20T02:26:02;16.73;;;12.73;;
9248;SDS011;4660;41.768;26.198;2023-12-20T02:28:28;20.07;;;12.13;;
9248;SDS011;4660;41.768;26.198;2023-12-20T02:30:54;15.67;;;11.67;;
9248;SDS011;4660;41.768;26.198;2023-12-20T02:33:19;17.13;;;11.80;;
9248;SDS011;4660;41.768;26.198;2023-12-20T02:35:45;22.83;;;13.53;;
9248;SDS011;4660;41.768;26.198;2023-12-20T02:38:10;21.47;;;13.97;;
9248;SDS011;4660;41.768;26.198;2023-12-20T02:40:36;19.23;;;13.50;;
9248;SDS011;4660;41.768;26.198;2023-12-20T02:43:01;18.80;;;13.20;;
9248;SDS011;4660;41.768;26.198;2023-12-20T02:45:27;14.27;;;9.73;;
9248;SDS011;4660;41.768;26.198;2023-12-20T02:47:52;15.53;;;10.73;;
9248;SDS011;4660;41.768;26.198;2023-12-20T02:50:18;17.23;;;10.53;;
9248;SDS011;4660;41.768;26.198;2023-12-20T02:52:44;14.10;;;10.83;;
9248;SDS011;4660;41.768;26.198;2023-12-20T02:55:10;17.67;;;11.27;;
9248;SDS011;4660;41.768;26.198;2023-12-20T02:57:36;15.97;;;10.43;;
9248;SDS011;4660;41.768;26.198;2023-12-20T03:00:07;17.03;;;11.50;;
9248;SDS011;4660;41.768;26.198;2023-12-20T03:02:34;14.67;;;10.27;;
9248;SDS011;4660;41.768;26.198;2023-12-20T03:05:00;17.73;;;10.37;;
9248;SDS011;4660;41.768;26.198;2023-12-20T03:07:25;13.37;;;9.87;;
9248;SDS011;4660;41.768;26.198;2023-12-20T03:09:50;15.03;;;10.77;;
9248;SDS011;4660;41.768;26.198;2023-12-20T03:12:16;19.63;;;11.20;;
9248;SDS011;4660;41.768;26.198;2023-12-20T03:14:43;17.17;;;10.60;;
9248;SDS011;4660;41.768;26.198;2023-12-20T03:17:08;17.97;;;12.93;;
9248;SDS011;4660;41.768;26.198;2023-12-20T03:19:34;18.40;;;11.23;;
9248;SDS011;4660;41.768;26.198;2023-12-20T03:21:59;16.10;;;10.87;;
9248;SDS011;4660;41.768;26.198;2023-12-20T03:24:26;18.67;;;10.93;;
9248;SDS011;4660;41.768;26.198;2023-12-20T03:26:51;15.77;;;12.03;;
9248;SDS011;4660;41.768;26.198;2023-12-20T03:29:17;18.17;;;10.20;;
9248;SDS011;4660;41.768;26.198;2023-12-20T03:31:42;13.80;;;10.70;;
9248;SDS011;4660;41.768;26.198;2023-12-20T03:34:08;16.37;;;11.20;;
9248;SDS011;4660;41.768;26.198;2023-12-20T03:36:33;17.20;;;11.43;;
9248;SDS011;4660;41.768;26.198;2023-12-20T03:38:59;17.43;;;11.93;;
9248;SDS011;4660;41.768;26.198;2023-12-20T03:41:24;24.13;;;15.87;;
9248;SDS011;4660;41.768;26.198;2023-12-20T03:43:50;19.90;;;13.63;;
9248;SDS011;4660;41.768;26.198;2023-12-20T03:46:15;20.23;;;12.63;;
9248;SDS011;4660;41.768;26.198;2023-12-20T03:48:41;20.40;;;13.20;;
9248;SDS011;4660;41.768;26.198;2023-12-20T03:51:07;17.03;;;12.30;;
9248;SDS011;4660;41.768;26.198;2023-12-20T03:53:32;22.07;;;13.87;;
9248;SDS011;4660;41.768;26.198;2023-12-20T03:55:57;19.23;;;13.03;;
9248;SDS011;4660;41.768;26.198;2023-12-20T03:58:23;21.30;;;12.20;;
9248;SDS011;4660;41.768;26.198;2023-12-20T04:00:48;19.83;;;13.50;;
9248;SDS011;4660;41.768;26.198;2023-12-20T04:03:14;21.97;;;12.50;;
9248;SDS011;4660;41.768;26.198;2023-12-20T04:05:40;21.57;;;13.10;;
9248;SDS011;4660;41.768;26.198;2023-12-20T04:08:07;18.20;;;11.70;;
9248;SDS011;4660;41.768;26.198;2023-12-20T04:10:33;24.03;;;13.00;;
9248;SDS011;4660;41.768;26.198;2023-12-20T04:12:58;22.97;;;13.37;;
9248;SDS011;4660;41.768;26.198;2023-12-20T04:15:24;19.80;;;11.50;;
9248;SDS011;4660;41.768;26.198;2023-12-20T04:17:49;23.63;;;14.77;;
9248;SDS011;4660;41.768;26.198;2023-12-20T04:20:15;27.33;;;20.43;;
9248;SDS011;4660;41.768;26.198;2023-12-20T04:22:40;19.87;;;14.63;;
9248;SDS011;4660;41.768;26.198;2023-12-20T04:25:06;24.67;;;16.90;;
9248;SDS011;4660;41.768;26.198;2023-12-20T04:27:31;21.33;;;13.03;;
9248;SDS011;4660;41.768;26.198;2023-12-20T04:29:57;23.30;;;13.67;;
9248;SDS011;4660;41.768;26.198;2023-12-20T04:32:23;21.03;;;13.10;;
9248;SDS011;4660;41.768;26.198;2023-12-20T04:34:48;15.17;;;11.30;;
9248;SDS011;4660;41.768;26.198;2023-12-20T04:37:14;15.87;;;10.77;;
9248;SDS011;4660;41.768;26.198;2023-12-20T04:39:39;13.13;;;10.13;;
9248;SDS011;4660;41.768;26.198;2023-12-20T04:42:06;18.57;;;14.23;;
9248;SDS011;4660;41.768;26.198;2023-12-20T04:44:32;16.87;;;12.17;;
9248;SDS011;4660;41.768;26.198;2023-12-20T04:46:57;19.37;;;13.80;;
9248;SDS011;4660;41.768;26.198;2023-12-20T04:49:23;20.07;;;15.37;;
9248;SDS011;4660;41.768;26.198;2023-12-20T04:51:48;19.63;;;15.80;;
9248;SDS011;4660;41.768;26.198;2023-12-20T04:54:14;21.53;;;16.13;;
9248;SDS011;4660;41.768;26.198;2023-12-20T04:56:39;24.27;;;16.60;;
9248;SDS011;4660;41.768;26.198;2023-12-20T04:59:05;29.50;;;20.37;;
9248;SDS011;4660;41.768;26.198;2023-12-20T05:01:30;37.60;;;26.53;;
9248;SDS011;4660;41.768;26.198;2023-12-20T05:03:56;30.63;;;22.80;;
9248;SDS011;4660;41.768;26.198;2023-12-20T05:06:22;30.47;;;23.13;;
9248;SDS011;4660;41.768;26.198;2023-12-20T05:08:47;30.30;;;23.87;;
9248;SDS011;4660;41.768;26.198;2023-12-20T05:11:12;27.37;;;19.90;;
9248;SDS011;4660;41.768;26.198;2023-12-20T05:13:39;21.23;;;13.27;;
9248;SDS011;4660;41.768;26.198;2023-12-20T05:16:05;22.73;;;13.63;;
9248;SDS011;4660;41.768;26.198;2023-12-20T05:18:30;23.83;;;12.50;;
9248;SDS011;4660;41.768;26.198;2023-12-20T05:20:56;22.33;;;12.10;;
9248;SDS011;4660;41.768;26.198;2023-12-20T05:23:22;17.40;;;12.20;;
9248;SDS011;4660;41.768;26.198;2023-12-20T05:25:47;18.97;;;12.33;;
9248;SDS011;4660;41.768;26.198;2023-12-20T05:28:14;16.13;;;11.57;;
9248;SDS011;4660;41.768;26.198;2023-12-20T05:30:40;18.00;;;11.77;;
9248;SDS011;4660;41.768;26.198;2023-12-20T05:33:05;16.83;;;11.13;;
9248;SDS011;4660;41.768;26.198;2023-12-20T05:35:31;17.87;;;11.77;;
9248;SDS011;4660;41.768;26.198;2023-12-20T05:37:56;16.50;;;11.23;;
9248;SDS011;4660;41.768;26.198;2023-12-20T05:40:22;16.93;;;11.10;;
9248;SDS011;4660;41.768;26.198;2023-12-20T05:42:47;16.87;;;10.97;;
9248;SDS011;4660;41.768;26.198;2023-12-20T05:45:14;34.27;;;13.73;;
9248;SDS011;4660;41.768;26.198;2023-12-20T05:47:40;31.53;;;18.63;;
9248;SDS011;4660;41.768;26.198;2023-12-20T05:50:05;45.10;;;28.50;;
9248;SDS011;4660;41.768;26.198;2023-12-20T05:52:31;56.53;;;35.37;;
9248;SDS011;4660;41.768;26.198;2023-12-20T05:54:56;42.93;;;27.17;;
9248;SDS011;4660;41.768;26.198;2023-12-20T05:57:26;40.57;;;26.90;;
9248;SDS011;4660;41.768;26.198;2023-12-20T05:59:51;39.87;;;24.83;;
9248;SDS011;4660;41.768;26.198;2023-12-20T06:02:17;35.30;;;23.33;;
9248;SDS011;4660;41.768;26.198;2023-12-20T06:04:42;86.67;;;51.23;;
9248;SDS011;4660;41.768;26.198;2023-12-20T06:07:11;133.10;;;76.67;;
9248;SDS011;4660;41.768;26.198;2023-12-20T06:09:37;74.60;;;43.47;;
9248;SDS011;4660;41.768;26.198;2023-12-20T06:12:02;38.77;;;26.43;;
9248;SDS011;4660;41.768;26.198;2023-12-20T06:14:28;36.70;;;23.03;;
9248;SDS011;4660;41.768;26.198;2023-12-20T06:16:55;39.97;;;23.57;;
9248;SDS011;4660;41.768;26.198;2023-12-20T06:19:21;32.30;;;21.07;;
9248;SDS011;4660;41.768;26.198;2023-12-20T06:21:47;38.17;;;21.70;;
9248;SDS011;4660;41.768;26.198;2023-12-20T06:24:12;34.70;;;21.47;;
9248;SDS011;4660;41.768;26.198;2023-12-20T06:26:37;36.63;;;21.67;;
9248;SDS011;4660;41.768;26.198;2023-12-20T06:29:03;35.37;;;23.40;;
9248;SDS011;4660;41.768;26.198;2023-12-20T06:31:29;37.00;;;23.60;;
9248;SDS011;4660;41.768;26.198;2023-12-20T06:33:55;55.47;;;25.30;;
9248;SDS011;4660;41.768;26.198;2023-12-20T06:36:23;37.93;;;19.33;;
9248;SDS011;4660;41.768;26.198;2023-12-20T06:38:49;26.70;;;17.87;;
9248;SDS011;4660;41.768;26.198;2023-12-20T06:41:15;23.67;;;15.93;;
9248;SDS011;4660;41.768;26.198;2023-12-20T06:43:41;24.17;;;13.77;;
9248;SDS011;4660;41.768;26.198;2023-12-20T06:46:07;17.93;;;11.87;;
9248;SDS011;4660;41.768;26.198;2023-12-20T06:48:34;14.37;;;10.43;;
9248;SDS011;4660;41.768;26.198;2023-12-20T06:51:00;14.10;;;10.60;;
9248;SDS011;4660;41.768;26.198;2023-12-20T06:53:29;15.27;;;10.53;;
9248;SDS011;4660;41.768;26.198;2023-12-20T06:55:55;15.93;;;11.00;;
9248;SDS011;4660;41.768;26.198;2023-12-20T06:58:21;15.33;;;11.03;;
9248;SDS011;4660;41.768;26.198;2023-12-20T07:00:47;18.87;;;10.33;;
9248;SDS011;4660;41.768;26.198;2023-12-20T07:03:13;17.70;;;10.93;;
9248;SDS011;4660;41.768;26.198;2023-12-20T07:05:38;19.03;;;11.13;;
9248;SDS011;4660;41.768;26.198;2023-12-20T07:08:04;19.47;;;10.73;;
9248;SDS011;4660;41.768;26.198;2023-12-20T07:10:30;17.93;;;12.50;;
9248;SDS011;4660;41.768;26.198;2023-12-20T07:12:55;18.63;;;13.17;;
9248;SDS011;4660;41.768;26.198;2023-12-20T07:15:21;18.23;;;13.83;;
9248;SDS011;4660;41.768;26.198;2023-12-20T07:17:47;33.77;;;18.50;;
9248;SDS011;4660;41.768;26.198;2023-12-20T07:20:12;34.47;;;19.70;;
9248;SDS011;4660;41.768;26.198;2023-12-20T07:22:38;28.13;;;19.13;;
9248;SDS011;4660;41.768;26.198;2023-12-20T07:25:04;28.90;;;19.50;;
9248;SDS011;4660;41.768;26.198;2023-12-20T07:27:30;31.27;;;19.53;;
9248;SDS011;4660;41.768;26.198;2023-12-20T07:29:56;27.93;;;19.57;;
9248;SDS011;4660;41.768;26.198;2023-12-20T07:32:21;32.73;;;21.57;;
9248;SDS011;4660;41.768;26.198;2023-12-20T07:34:47;32.50;;;20.37;;
9248;SDS011;4660;41.768;26.198;2023-12-20T07:37:12;29.43;;;19.70;;
9248;SDS011;4660;41.768;26.198;2023-12-20T07:39:41;32.40;;;21.23;;
9248;SDS011;4660;41.768;26.198;2023-12-20T07:42:07;34.53;;;21.70;;
9248;SDS011;4660;41.768;26.198;2023-12-20T07:44:34;30.77;;;21.20;;
9248;SDS011;4660;41.768;26.198;2023-12-20T07:47:01;26.67;;;20.57;;
9248;SDS011;4660;41.768;26.198;2023-12-20T07:49:27;34.07;;;22.23;;
9248;SDS011;4660;41.768;26.198;2023-12-20T07:51:53;35.77;;;21.27;;
9248;SDS011;4660;41.768;26.198;2023-12-20T07:54:18;30.07;;;21.03;;
9248;SDS011;4660;41.768;26.198;2023-12-20T07:56:44;36.73;;;23.10;;
9248;SDS011;4660;41.768;26.198;2023-12-20T07:59:10;32.03;;;22.90;;
9248;SDS011;4660;41.768;26.198;2023-12-20T08:01:35;34.30;;;22.83;;
9248;SDS011;4660;41.768;26.198;2023-12-20T08:04:01;34.93;;;22.67;;
9248;SDS011;4660;41.768;26.198;2023-12-20T08:06:26;34.33;;;23.23;;
9248;SDS011;4660;41.768;26.198;2023-12-20T08:08:52;44.13;;;26.23;;
9248;SDS011;4660;41.768;26.198;2023-12-20T08:11:18;35.37;;;25.13;;
9248;SDS011;4660;41.768;26.198;2023-12-20T08:13:43;40.37;;;25.73;;
9248;SDS011;4660;41.768;26.198;2023-12-20T08:16:09;40.93;;;24.90;;
9248;SDS011;4660;41.768;26.198;2023-12-20T08:18:34;40.03;;;26.20;;
9248;SDS011;4660;41.768;26.198;2023-12-20T08:21:00;38.07;;;23.80;;
9248;SDS011;4660;41.768;26.198;2023-12-20T08:23:26;35.43;;;24.37;;
9248;SDS011;4660;41.768;26.198;2023-12-20T08:25:52;36.03;;;23.90;;
9248;SDS011;4660;41.768;26.198;2023-12-20T08:28:18;28.27;;;20.07;;
9248;SDS011;4660;41.768;26.198;2023-12-20T08:30:43;28.43;;;19.53;;
9248;SDS011;4660;41.768;26.198;2023-12-20T08:33:09;27.47;;;19.10;;
9248;SDS011;4660;41.768;26.198;2023-12-20T08:35:38;26.73;;;20.33;;
9248;SDS011;4660;41.768;26.198;2023-12-20T08:38:06;40.93;;;28.40;;
9248;SDS011;4660;41.768;26.198;2023-12-20T08:40:32;34.07;;;22.50;;
9248;SDS011;4660;41.768;26.198;2023-12-20T08:42:58;33.17;;;22.70;;
9248;SDS011;4660;41.768;26.198;2023-12-20T08:45:23;35.73;;;23.87;;
9248;SDS011;4660;41.768;26.198;2023-12-20T08:47:50;41.83;;;28.03;;
9248;SDS011;4660;41.768;26.198;2023-12-20T08:50:15;55.63;;;34.27;;
9248;SDS011;4660;41.768;26.198;2023-12-20T08:52:41;45.60;;;30.53;;
9248;SDS011;4660;41.768;26.198;2023-12-20T08:55:07;47.47;;;28.90;;
9248;SDS011;4660;41.768;26.198;2023-12-20T08:57:33;43.53;;;27.33;;
9248;SDS011;4660;41.768;26.198;2023-12-20T08:59:59;37.97;;;25.97;;
9248;SDS011;4660;41.768;26.198;2023-12-20T09:02:24;39.17;;;26.13;;
9248;SDS011;4660;41.768;26.198;2023-12-20T09:04:50;74.40;;;45.87;;
9248;SDS011;4660;41.768;26.198;2023-12-20T09:07:25;66.43;;;41.60;;
9248;SDS011;4660;41.768;26.198;2023-12-20T09:09:52;42.00;;;26.60;;
9248;SDS011;4660;41.768;26.198;2023-12-20T09:12:18;41.37;;;24.70;;
9248;SDS011;4660;41.768;26.198;2023-12-20T09:14:45;27.67;;;20.27;;
9248;SDS011;4660;41.768;26.198;2023-12-20T09:17:11;25.73;;;19.20;;
9248;SDS011;4660;41.768;26.198;2023-12-20T09:19:37;33.43;;;20.57;;
9248;SDS011;4660;41.768;26.198;2023-12-20T09:22:03;26.20;;;19.10;;
9248;SDS011;4660;41.768;26.198;2023-12-20T09:24:29;30.67;;;20.43;;
9248;SDS011;4660;41.768;26.198;2023-12-20T09:26:55;31.97;;;21.43;;
9248;SDS011;4660;41.768;26.198;2023-12-20T09:29:21;29.80;;;19.93;;
9248;SDS011;4660;41.768;26.198;2023-12-20T09:31:47;28.27;;;20.13;;
9248;SDS011;4660;41.768;26.198;2023-12-20T09:34:14;28.37;;;19.63;;
9248;SDS011;4660;41.768;26.198;2023-12-20T09:36:41;28.47;;;19.27;;
9248;SDS011;4660;41.768;26.198;2023-12-20T09:39:11;29.70;;;20.20;;
9248;SDS011;4660;41.768;26.198;2023-12-20T09:41:39;23.60;;;17.50;;
9248;SDS011;4660;41.768;26.198;2023-12-20T09:44:08;26.03;;;18.30;;
9248;SDS011;4660;41.768;26.198;2023-12-20T09:46:40;27.73;;;18.37;;
9248;SDS011;4660;41.768;26.198;2023-12-20T09:49:08;26.33;;;17.20;;
9248;SDS011;4660;41.768;26.198;2023-12-20T09:51:35;22.70;;;17.33;;
9248;SDS011;4660;41.768;26.198;2023-12-20T09:54:02;22.33;;;17.80;;
9248;SDS011;4660;41.768;26.198;2023-12-20T09:56:29;19.77;;;14.83;;
9248;SDS011;4660;41.768;26.198;2023-12-20T09:58:55;20.77;;;15.07;;
9248;SDS011;4660;41.768;26.198;2023-12-20T10:01:20;24.93;;;15.97;;
9248;SDS011;4660;41.768;26.198;2023-12-20T10:03:46;24.13;;;15.97;;
9248;SDS011;4660;41.768;26.198;2023-12-20T10:06:12;24.30;;;16.67;;
9248;SDS011;4660;41.768;26.198;2023-12-20T10:08:38;23.03;;;16.43;;
9248;SDS011;4660;41.768;26.198;2023-12-20T10:11:04;24.83;;;17.63;;
9248;SDS011;4660;41.768;26.198;2023-12-20T10:13:30;20.63;;;16.40;;
9248;SDS011;4660;41.768;26.198;2023-12-20T10:15:56;22.70;;;17.00;;
9248;SDS011;4660;41.768;26.198;2023-12-20T10:18:22;22.93;;;16.20;;
9248;SDS011;4660;41.768;26.198;2023-12-20T10:20:48;23.33;;;16.37;;
9248;SDS011;4660;41.768;26.198;2023-12-20T10:23:13;22.17;;;15.87;;
9248;SDS011;4660;41.768;26.198;2023-12-20T10:25:40;22.20;;;16.93;;
9248;SDS011;4660;41.768;26.198;2023-12-20T10:28:13;20.43;;;16.00;;
9248;SDS011;4660;41.768;26.198;2023-12-20T10:30:42;23.77;;;16.57;;
9248;SDS011;4660;41.768;26.198;2023-12-20T10:33:08;23.27;;;16.30;;
9248;SDS011;4660;41.768;26.198;2023-12-20T10:35:38;18.83;;;14.40;;
9248;SDS011;4660;41.768;26.198;2023-12-20T10:38:05;25.13;;;16.37;;
9248;SDS011;4660;41.768;26.198;2023-12-20T10:40:34;23.57;;;17.63;;
9248;SDS011;4660;41.768;26.198;2023-12-20T10:43:04;24.33;;;17.63;;
9248;SDS011;4660;41.768;26.198;2023-12-20T10:45:31;24.87;;;17.33;;
9248;SDS011;4660;41.768;26.198;2023-12-20T10:47:57;25.63;;;18.43;;
9248;SDS011;4660;41.768;26.198;2023-12-20T10:50:25;26.47;;;18.27;;
9248;SDS011;4660;41.768;26.198;2023-12-20T10:52:52;30.17;;;18.00;;
9248;SDS011;4660;41.768;26.198;2023-12-20T10:55:24;24.90;;;16.47;;
9248;SDS011;4660;41.768;26.198;2023-12-20T10:57:50;23.07;;;16.20;;
9248;SDS011;4660;41.768;26.198;2023-12-20T11:00:18;29.50;;;18.10;;
9248;SDS011;4660;41.768;26.198;2023-12-20T11:02:46;24.07;;;17.27;;
9248;SDS011;4660;41.768;26.198;2023-12-20T11:08:07;26.00;;;17.33;;
9248;SDS011;4660;41.768;26.198;2023-12-20T11:10:48;27.00;;;17.60;;
9248;SDS011;4660;41.768;26.198;2023-12-20T11:13:23;30.17;;;18.17;;
9248;SDS011;4660;41.768;26.198;2023-12-20T11:15:56;31.63;;;19.07;;
9248;SDS011;4660;41.768;26.198;2023-12-20T11:18:28;27.90;;;19.57;;
9248;SDS011;4660;41.768;26.198;2023-12-20T11:21:05;25.83;;;19.10;;
9248;SDS011;4660;41.768;26.198;2023-12-20T11:23:34;26.53;;;19.40;;
9248;SDS011;4660;41.768;26.198;2023-12-20T11:26:00;29.13;;;19.17;;
9248;SDS011;4660;41.768;26.198;2023-12-20T11:28:27;32.97;;;19.90;;
9248;SDS011;4660;41.768;26.198;2023-12-20T11:30:56;29.80;;;20.43;;
9248;SDS011;4660;41.768;26.198;2023-12-20T11:33:26;31.83;;;21.70;;
9248;SDS011;4660;41.768;26.198;2023-12-20T11:35:55;27.17;;;21.00;;
9248;SDS011;4660;41.768;26.198;2023-12-20T11:38:22;31.93;;;22.23;;
9248;SDS011;4660;41.768;26.198;2023-12-20T11:40:49;31.53;;;21.40;;
9248;SDS011;4660;41.768;26.198;2023-12-20T11:46:04;34.33;;;21.60;;
9248;SDS011;4660;41.768;26.198;2023-12-20T11:48:31;32.23;;;21.30;;
9248;SDS011;4660;41.768;26.198;2023-12-20T11:50:57;30.80;;;20.87;;
9248;SDS011;4660;41.768;26.198;2023-12-20T11:53:23;27.00;;;20.00;;
9248;SDS011;4660;41.768;26.198;2023-12-20T11:55:49;27.60;;;19.50;;
9248;SDS011;4660;41.768;26.198;2023-12-20T11:58:35;32.37;;;22.03;;
9248;SDS011;4660;41.768;26.198;2023-12-20T12:01:02;31.90;;;21.17;;
9248;SDS011;4660;41.768;26.198;2023-12-20T12:03:47;30.03;;;21.33;;
9248;SDS011;4660;41.768;26.198;2023-12-20T12:06:13;32.80;;;21.83;;
9248;SDS011;4660;41.768;26.198;2023-12-20T12:08:38;38.23;;;22.47;;
9248;SDS011;4660;41.768;26.198;2023-12-20T12:11:24;34.37;;;24.67;;
9248;SDS011;4660;41.768;26.198;2023-12-20T12:13:50;32.53;;;22.93;;
9248;SDS011;4660;41.768;26.198;2023-12-20T12:16:19;35.27;;;21.77;;
9248;SDS011;4660;41.768;26.198;2023-12-20T12:19:05;31.50;;;20.23;;
9248;SDS011;4660;41.768;26.198;2023-12-20T12:21:31;35.00;;;21.87;;
9248;SDS011;4660;41.768;26.198;2023-12-20T12:24:08;34.43;;;21.37;;
9248;SDS011;4660;41.768;26.198;2023-12-20T12:26:34;31.80;;;20.47;;
9248;SDS011;4660;41.768;26.198;2023-12-20T12:29:00;30.10;;;20.83;;
9248;SDS011;4660;41.768;26.198;2023-12-20T12:31:25;32.57;;;20.47;;
9248;SDS011;4660;41.768;26.198;2023-12-20T12:34:11;30.33;;;21.03;;
9248;SDS011;4660;41.768;26.198;2023-12-20T12:36:37;33.47;;;22.27;;
9248;SDS011;4660;41.768;26.198;2023-12-20T12:39:02;33.10;;;22.73;;
9248;SDS011;4660;41.768;26.198;2023-12-20T12:41:30;31.83;;;22.37;;
9248;SDS011;4660;41.768;26.198;2023-12-20T12:43:55;41.40;;;25.20;;
9248;SDS011;4660;41.768;26.198;2023-12-20T12:46:21;38.97;;;23.97;;
9248;SDS011;4660;41.768;26.198;2023-12-20T12:48:46;41.20;;;25.00;;
9248;SDS011;4660;41.768;26.198;2023-12-20T12:51:12;41.93;;;25.27;;
9248;SDS011;4660;41.768;26.198;2023-12-20T12:53:39;40.90;;;25.13;;
9248;SDS011;4660;41.768;26.198;2023-12-20T12:56:04;41.57;;;27.10;;
9248;SDS011;4660;41.768;26.198;2023-12-20T12:58:31;36.80;;;25.73;;
9248;SDS011;4660;41.768;26.198;2023-12-20T13:00:57;41.73;;;27.27;;
9248;SDS011;4660;41.768;26.198;2023-12-20T13:03:22;47.07;;;27.93;;
9248;SDS011;4660;41.768;26.198;2023-12-20T13:05:49;51.47;;;30.60;;
9248;SDS011;4660;41.768;26.198;2023-12-20T13:08:15;45.47;;;27.77;;
9248;SDS011;4660;41.768;26.198;2023-12-20T13:10:40;43.10;;;29.27;;
9248;SDS011;4660;41.768;26.198;2023-12-20T13:13:06;50.73;;;30.00;;
9248;SDS011;4660;41.768;26.198;2023-12-20T13:15:31;44.70;;;29.37;;
9248;SDS011;4660;41.768;26.198;2023-12-20T13:17:57;44.57;;;29.47;;
9248;SDS011;4660;41.768;26.198;2023-12-20T13:20:23;45.97;;;29.63;;
9248;SDS011;4660;41.768;26.198;2023-12-20T13:22:48;47.20;;;29.00;;
9248;SDS011;4660;41.768;26.198;2023-12-20T13:25:14;52.13;;;28.87;;
9248;SDS011;4660;41.768;26.198;2023-12-20T13:27:39;48.57;;;28.40;;
9248;SDS011;4660;41.768;26.198;2023-12-20T13:30:06;43.13;;;25.43;;
9248;SDS011;4660;41.768;26.198;2023-12-20T13:32:32;45.23;;;27.50;;
9248;SDS011;4660;41.768;26.198;2023-12-20T13:34:58;41.17;;;26.30;;
9248;SDS011;4660;41.768;26.198;2023-12-20T13:37:23;41.03;;;26.57;;
9248;SDS011;4660;41.768;26.198;2023-12-20T13:39:49;42.73;;;26.90;;
9248;SDS011;4660;41.768;26.198;2023-12-20T13:42:15;42.10;;;26.20;;
9248;SDS011;4660;41.768;26.198;2023-12-20T13:44:40;42.30;;;25.60;;
9248;SDS011;4660;41.768;26.198;2023-12-20T13:47:06;46.23;;;25.20;;
9248;SDS011;4660;41.768;26.198;2023-12-20T13:49:31;41.93;;;25.90;;
9248;SDS011;4660;41.768;26.198;2023-12-20T13:51:57;42.47;;;26.13;;
9248;SDS011;4660;41.768;26.198;2023-12-20T13:54:23;42.87;;;25.67;;
9248;SDS011;4660;41.768;26.198;2023-12-20T13:56:49;39.73;;;25.33;;
9248;SDS011;4660;41.768;26.198;2023-12-20T13:59:15;44.27;;;27.57;;
9248;SDS011;4660;41.768;26.198;2023-12-20T14:01:41;54.43;;;31.87;;
9248;SDS011;4660;41.768;26.198;2023-12-20T14:04:06;46.93;;;31.43;;
9248;SDS011;4660;41.768;26.198;2023-12-20T14:06:32;45.47;;;29.10;;
9248;SDS011;4660;41.768;26.198;2023-12-20T14:08:58;43.57;;;28.33;;
9248;SDS011;4660;41.768;26.198;2023-12-20T14:11:27;54.00;;;29.30;;
9248;SDS011;4660;41.768;26.198;2023-12-20T14:16:46;46.07;;;27.20;;
9248;SDS011;4660;41.768;26.198;2023-12-20T14:19:13;44.00;;;27.53;;
9248;SDS011;4660;41.768;26.198;2023-12-20T14:21:38;36.20;;;24.70;;
9248;SDS011;4660;41.768;26.198;2023-12-20T14:24:04;40.80;;;26.07;;
9248;SDS011;4660;41.768;26.198;2023-12-20T14:26:30;42.20;;;26.73;;
9248;SDS011;4660;41.768;26.198;2023-12-20T14:28:56;46.73;;;29.50;;
9248;SDS011;4660;41.768;26.198;2023-12-20T14:31:22;40.40;;;27.63;;
9248;SDS011;4660;41.768;26.198;2023-12-20T14:33:49;42.83;;;27.10;;
9248;SDS011;4660;41.768;26.198;2023-12-20T14:36:18;56.33;;;35.60;;